Makita — V2ET2 — position and weather

sailwx.info

Track history (hours):
 
Tides and Currents Weather Stations Pressure Air Temp Water Temp Dewpoint Dewpoint Depression Visibility Wind Speed Wind Dir Waves Ship Positions

Makita

Last reported at 2014-Aug-19 00:08 UTC. Time now 2014-Aug-22 05:55 UTC.
Position N 01°09' E 103°46'.

Length 260 m; draft 11.3 m.

Type: Ship. MMSI: 305543000.

Date/timePositionNaut miles runAvg speedWind from/ knotsBaromVisibWave heightAir tempDewpointWater temp
2014-Aug-19 00:08N 01°09' E 103°46'814.9
2014-Aug-18 23:33N 01°13' E 103°54'6 5.8
2014-Aug-18 22:32N 01°17' E 103°58'0 0.0
2014-Aug-18 21:32N 01°17' E 103°58'0 0.1
2014-Aug-18 20:32N 01°17' E 103°58'0 0.1
2014-Aug-18 19:32N 01°17' E 103°58'0 0.1
2014-Aug-18 18:32N 01°17' E 103°58'0 0.0
2014-Aug-18 17:32N 01°17' E 103°58'0 0.0
2014-Aug-18 16:32N 01°17' E 103°58'0 0.0
2014-Aug-18 15:32N 01°17' E 103°58'0 0.0
2014-Aug-18 14:32N 01°17' E 103°58'0 0.0
2014-Aug-18 13:32N 01°17' E 103°58'0 0.0
2014-Aug-18 12:32N 01°17' E 103°58'5 5.3
2014-Aug-18 11:33N 01°14' E 103°54'9 7.8
2014-Aug-18 10:20N 01°17' E 103°46'1 0.4
2014-Aug-18 08:24N 01°17' E 103°46'0 0.0
2014-Aug-18 07:33N 01°17' E 103°46'0 0.0
2014-Aug-18 06:24N 01°17' E 103°46'0 0.0
2014-Aug-18 05:30N 01°17' E 103°46'0 0.0
2014-Aug-18 04:33N 01°17' E 103°46'0 0.0
2014-Aug-18 03:18N 01°17' E 103°46'0 0.0
2014-Aug-18 02:30N 01°17' E 103°46'0 0.0
2014-Aug-18 01:30N 01°17' E 103°46'0 0.0
2014-Aug-18 00:33N 01°17' E 103°46'  
2014-Aug-12 08:13N 22°20' E 114°05'0 0.1
2014-Aug-12 04:21N 22°20' E 114°04'9 8.8
2014-Aug-12 03:23N 22°21' E 113°55'6 5.1
2014-Aug-12 02:17N 22°27' E 113°53'0 0.0
2014-Aug-12 01:23N 22°27' E 113°53'0 0.0
2014-Aug-12 00:32N 22°27' E 113°53'0 0.0
2014-Aug-11 23:26N 22°27' E 113°53'0 0.0
2014-Aug-11 22:20N 22°27' E 113°53'0 0.0
2014-Aug-11 21:32N 22°27' E 113°53'0 0.0
2014-Aug-11 20:26N 22°27' E 113°53'0 0.0
2014-Aug-11 19:26N 22°27' E 113°53'0 0.0
2014-Aug-11 18:32N 22°27' E 113°53'0 0.0
2014-Aug-11 17:32N 22°27' E 113°53'0 0.0
2014-Aug-11 16:31N 22°27' E 113°53'1 1.3
2014-Aug-11 15:32N 22°26' E 113°53'158 6.6
2014-Aug-10 15:33N 22°45' E 116°43'1510.1
2014-Aug-10 14:03N 22°54' E 116°56'5 9.9
2014-Aug-10 13:31N 22°57' E 117°00'9 9.7
2014-Aug-10 12:33N 23°04' E 117°08'3110.0
2014-Aug-10 09:25N 23°23' E 117°34'910.6
2014-Aug-10 08:32N 23°29' E 117°42'1110.9
2014-Aug-10 07:33N 23°36' E 117°52'1111.2
2014-Aug-10 06:33N 23°43' E 118°02'1111.5
2014-Aug-10 05:33N 23°50' E 118°12'1211.6
2014-Aug-10 04:33N 23°57' E 118°22'1110.9
2014-Aug-10 03:33N 24°03' E 118°32'4110.2
2014-Aug-09 23:33N 24°28' E 119°07'9 9.4
2014-Aug-09 22:34N 24°33' E 119°15'  
Track history (hours):
 
Tides and Currents Weather Stations Pressure Air Temp Water Temp Dewpoint Dewpoint Depression Visibility Wind Speed Wind Dir Waves Ship Positions

Makita

Last reported at 2014-Aug-19 00:08 UTC. Time now 2014-Aug-22 05:55 UTC.
Position N 01°09' E 103°46'.

Length 260 m; draft 11.3 m.

Type: Ship. MMSI: 305543000.

Date/timePositionNaut miles runAvg speedWind from/ knotsBaromVisibWave heightAir tempDewpointWater temp
2014-Aug-19 00:08N 01°09' E 103°46'814.9
2014-Aug-18 23:33N 01°13' E 103°54'6 5.8
2014-Aug-18 22:32N 01°17' E 103°58'0 0.0
2014-Aug-18 21:32N 01°17' E 103°58'0 0.1
2014-Aug-18 20:32N 01°17' E 103°58'0 0.1
2014-Aug-18 19:32N 01°17' E 103°58'0 0.1
2014-Aug-18 18:32N 01°17' E 103°58'0 0.0
2014-Aug-18 17:32N 01°17' E 103°58'0 0.0
2014-Aug-18 16:32N 01°17' E 103°58'0 0.0
2014-Aug-18 15:32N 01°17' E 103°58'0 0.0
2014-Aug-18 14:32N 01°17' E 103°58'0 0.0
2014-Aug-18 13:32N 01°17' E 103°58'0 0.0
2014-Aug-18 12:32N 01°17' E 103°58'5 5.3
2014-Aug-18 11:33N 01°14' E 103°54'9 7.8
2014-Aug-18 10:20N 01°17' E 103°46'1 0.4
2014-Aug-18 08:24N 01°17' E 103°46'0 0.0
2014-Aug-18 07:33N 01°17' E 103°46'0 0.0
2014-Aug-18 06:24N 01°17' E 103°46'0 0.0
2014-Aug-18 05:30N 01°17' E 103°46'0 0.0
2014-Aug-18 04:33N 01°17' E 103°46'0 0.0
2014-Aug-18 03:18N 01°17' E 103°46'0 0.0
2014-Aug-18 02:30N 01°17' E 103°46'0 0.0
2014-Aug-18 01:30N 01°17' E 103°46'0 0.0
2014-Aug-18 00:33N 01°17' E 103°46'  
2014-Aug-12 08:13N 22°20' E 114°05'0 0.1
2014-Aug-12 04:21N 22°20' E 114°04'9 8.8
2014-Aug-12 03:23N 22°21' E 113°55'6 5.1
2014-Aug-12 02:17N 22°27' E 113°53'0 0.0
2014-Aug-12 01:23N 22°27' E 113°53'0 0.0
2014-Aug-12 00:32N 22°27' E 113°53'0 0.0
2014-Aug-11 23:26N 22°27' E 113°53'0 0.0
2014-Aug-11 22:20N 22°27' E 113°53'0 0.0
2014-Aug-11 21:32N 22°27' E 113°53'0 0.0
2014-Aug-11 20:26N 22°27' E 113°53'0 0.0
2014-Aug-11 19:26N 22°27' E 113°53'0 0.0
2014-Aug-11 18:32N 22°27' E 113°53'0 0.0
2014-Aug-11 17:32N 22°27' E 113°53'0 0.0
2014-Aug-11 16:31N 22°27' E 113°53'1 1.3
2014-Aug-11 15:32N 22°26' E 113°53'158 6.6
2014-Aug-10 15:33N 22°45' E 116°43'1510.1
2014-Aug-10 14:03N 22°54' E 116°56'5 9.9
2014-Aug-10 13:31N 22°57' E 117°00'9 9.7
2014-Aug-10 12:33N 23°04' E 117°08'3110.0
2014-Aug-10 09:25N 23°23' E 117°34'910.6
2014-Aug-10 08:32N 23°29' E 117°42'1110.9
2014-Aug-10 07:33N 23°36' E 117°52'1111.2
2014-Aug-10 06:33N 23°43' E 118°02'1111.5
2014-Aug-10 05:33N 23°50' E 118°12'1211.6
2014-Aug-10 04:33N 23°57' E 118°22'1110.9
2014-Aug-10 03:33N 24°03' E 118°32'4110.2
2014-Aug-09 23:33N 24°28' E 119°07'9 9.4
2014-Aug-09 22:34N 24°33' E 119°15'  

Dump ship's entire track history